sensor_id;sensor_type;location;lat;lon;timestamp;temperature;humidity
7455;HTU21D;3769;51.208;4.454;2023-07-20T00:00:49;18.1;99
7455;HTU21D;3769;51.208;4.454;2023-07-20T00:05:49;18;99
7455;HTU21D;3769;51.208;4.454;2023-07-20T00:10:49;17.9;98.9
7455;HTU21D;3769;51.208;4.454;2023-07-20T00:15:49;18;98.9
7455;HTU21D;3769;51.208;4.454;2023-07-20T00:20:49;17.9;98.9
7455;HTU21D;3769;51.208;4.454;2023-07-20T00:25:49;18.1;99
7455;HTU21D;3769;51.208;4.454;2023-07-20T00:30:49;17.9;98.9
7455;HTU21D;3769;51.208;4.454;2023-07-20T00:35:49;17.9;98.9
7455;HTU21D;3769;51.208;4.454;2023-07-20T00:40:49;17.9;98.9
7455;HTU21D;3769;51.208;4.454;2023-07-20T00:45:49;17.9;98.9
7455;HTU21D;3769;51.208;4.454;2023-07-20T00:50:49;18;99
7455;HTU21D;3769;51.208;4.454;2023-07-20T00:55:49;18.1;99
7455;HTU21D;3769;51.208;4.454;2023-07-20T01:00:49;18;99
7455;HTU21D;3769;51.208;4.454;2023-07-20T01:06:00;18;98.9
7455;HTU21D;3769;51.208;4.454;2023-07-20T01:10:51;18;98.9
7455;HTU21D;3769;51.208;4.454;2023-07-20T01:15:49;18.1;99
7455;HTU21D;3769;51.208;4.454;2023-07-20T01:20:49;18;99
7455;HTU21D;3769;51.208;4.454;2023-07-20T01:25:57;18;99
7455;HTU21D;3769;51.208;4.454;2023-07-20T01:31:53;18;99
7455;HTU21D;3769;51.208;4.454;2023-07-20T01:35:53;17.8;98.9
7455;HTU21D;3769;51.208;4.454;2023-07-20T01:40:49;17.8;98.9
7455;HTU21D;3769;51.208;4.454;2023-07-20T01:45:49;17.8;98.9
7455;HTU21D;3769;51.208;4.454;2023-07-20T01:50:49;17.9;98.9
7455;HTU21D;3769;51.208;4.454;2023-07-20T01:55:49;17.8;98.9
7455;HTU21D;3769;51.208;4.454;2023-07-20T02:00:49;17.8;98.9
7455;HTU21D;3769;51.208;4.454;2023-07-20T02:05:49;17.8;98.9
7455;HTU21D;3769;51.208;4.454;2023-07-20T02:10:49;17.8;98.9
7455;HTU21D;3769;51.208;4.454;2023-07-20T02:15:49;17.9;98.9
7455;HTU21D;3769;51.208;4.454;2023-07-20T02:20:49;17.8;98.9
7455;HTU21D;3769;51.208;4.454;2023-07-20T02:25:49;17.8;98.9
7455;HTU21D;3769;51.208;4.454;2023-07-20T02:30:49;17.8;98.9
7455;HTU21D;3769;51.208;4.454;2023-07-20T02:35:49;17.9;98.9
7455;HTU21D;3769;51.208;4.454;2023-07-20T02:40:49;17.9;98.9
7455;HTU21D;3769;51.208;4.454;2023-07-20T02:45:50;17.7;98.9
7455;HTU21D;3769;51.208;4.454;2023-07-20T02:50:49;17.8;98.9
7455;HTU21D;3769;51.208;4.454;2023-07-20T02:55:49;17.8;98.9
7455;HTU21D;3769;51.208;4.454;2023-07-20T03:00:49;17.7;98.9
7455;HTU21D;3769;51.208;4.454;2023-07-20T03:05:49;17.5;98.9
7455;HTU21D;3769;51.208;4.454;2023-07-20T03:10:49;17.6;98.9
7455;HTU21D;3769;51.208;4.454;2023-07-20T03:15:49;17.6;98.9
7455;HTU21D;3769;51.208;4.454;2023-07-20T03:20:49;17.6;98.9
7455;HTU21D;3769;51.208;4.454;2023-07-20T03:25:49;17.7;98.9
7455;HTU21D;3769;51.208;4.454;2023-07-20T03:30:52;17.7;98.9
7455;HTU21D;3769;51.208;4.454;2023-07-20T03:35:49;17.7;98.9
7455;HTU21D;3769;51.208;4.454;2023-07-20T03:40:52;17.7;98.9
7455;HTU21D;3769;51.208;4.454;2023-07-20T03:45:49;17.6;98.9
7455;HTU21D;3769;51.208;4.454;2023-07-20T03:50:49;17.5;98.9
7455;HTU21D;3769;51.208;4.454;2023-07-20T03:55:49;17.5;98.9
7455;HTU21D;3769;51.208;4.454;2023-07-20T04:00:49;17.3;98.9
7455;HTU21D;3769;51.208;4.454;2023-07-20T04:05:49;17.5;98.9
7455;HTU21D;3769;51.208;4.454;2023-07-20T04:10:49;17.3;98.9
7455;HTU21D;3769;51.208;4.454;2023-07-20T04:15:49;17.5;98.9
7455;HTU21D;3769;51.208;4.454;2023-07-20T04:20:49;17.5;98.9
7455;HTU21D;3769;51.208;4.454;2023-07-20T04:25:49;17.6;98.9
7455;HTU21D;3769;51.208;4.454;2023-07-20T04:30:49;17.6;98.9
7455;HTU21D;3769;51.208;4.454;2023-07-20T04:35:50;17.4;98.9
7455;HTU21D;3769;51.208;4.454;2023-07-20T04:40:49;17.5;98.9
7455;HTU21D;3769;51.208;4.454;2023-07-20T04:45:49;17.5;98.9
7455;HTU21D;3769;51.208;4.454;2023-07-20T04:50:49;17.4;98.9
7455;HTU21D;3769;51.208;4.454;2023-07-20T04:55:50;17.3;98.8
7455;HTU21D;3769;51.208;4.454;2023-07-20T05:00:49;17.3;98.8
7455;HTU21D;3769;51.208;4.454;2023-07-20T05:05:49;17.5;98.9
7455;HTU21D;3769;51.208;4.454;2023-07-20T05:10:49;17.5;98.9
7455;HTU21D;3769;51.208;4.454;2023-07-20T05:15:52;17.6;98.9
7455;HTU21D;3769;51.208;4.454;2023-07-20T05:20:49;17.7;98.9
7455;HTU21D;3769;51.208;4.454;2023-07-20T05:25:56;17.7;98.9
7455;HTU21D;3769;51.208;4.454;2023-07-20T05:30:50;17.6;98.9
7455;HTU21D;3769;51.208;4.454;2023-07-20T05:35:49;17.8;98.9
7455;HTU21D;3769;51.208;4.454;2023-07-20T05:40:49;17.9;98.9
7455;HTU21D;3769;51.208;4.454;2023-07-20T05:45:49;18;98.9
7455;HTU21D;3769;51.208;4.454;2023-07-20T05:50:49;18;98.9
7455;HTU21D;3769;51.208;4.454;2023-07-20T05:55:53;18;98.9
7455;HTU21D;3769;51.208;4.454;2023-07-20T06:00:49;18.1;99
7455;HTU21D;3769;51.208;4.454;2023-07-20T06:05:49;18.1;99
7455;HTU21D;3769;51.208;4.454;2023-07-20T06:10:49;18;99
7455;HTU21D;3769;51.208;4.454;2023-07-20T06:15:49;18.3;99
7455;HTU21D;3769;51.208;4.454;2023-07-20T06:20:50;18.5;99
7455;HTU21D;3769;51.208;4.454;2023-07-20T06:25:49;18.5;99
7455;HTU21D;3769;51.208;4.454;2023-07-20T06:30:49;18.6;99
7455;HTU21D;3769;51.208;4.454;2023-07-20T06:35:49;18.4;99
7455;HTU21D;3769;51.208;4.454;2023-07-20T06:40:49;18.5;99
7455;HTU21D;3769;51.208;4.454;2023-07-20T06:45:52;18.7;99.1
7455;HTU21D;3769;51.208;4.454;2023-07-20T06:50:49;18.8;99.1
7455;HTU21D;3769;51.208;4.454;2023-07-20T06:55:49;18.6;99
7455;HTU21D;3769;51.208;4.454;2023-07-20T07:00:49;18.8;99.1
7455;HTU21D;3769;51.208;4.454;2023-07-20T07:05:49;19;99.1
7455;HTU21D;3769;51.208;4.454;2023-07-20T07:10:50;18.9;99.1
7455;HTU21D;3769;51.208;4.454;2023-07-20T07:15:49;18.9;99.1
7455;HTU21D;3769;51.208;4.454;2023-07-20T07:20:51;18.8;99.1
7455;HTU21D;3769;51.208;4.454;2023-07-20T07:25:49;18.8;99.1
7455;HTU21D;3769;51.208;4.454;2023-07-20T07:30:49;18.8;99.1
7455;HTU21D;3769;51.208;4.454;2023-07-20T07:35:49;18.9;99.1
7455;HTU21D;3769;51.208;4.454;2023-07-20T07:40:49;18.8;99.1
7455;HTU21D;3769;51.208;4.454;2023-07-20T07:45:49;19;99.1
7455;HTU21D;3769;51.208;4.454;2023-07-20T07:50:49;19.2;99.1
7455;HTU21D;3769;51.208;4.454;2023-07-20T07:55:49;19.3;99.1
7455;HTU21D;3769;51.208;4.454;2023-07-20T08:00:49;19.2;98.4
7455;HTU21D;3769;51.208;4.454;2023-07-20T08:05:49;19.3;99.1
7455;HTU21D;3769;51.208;4.454;2023-07-20T08:10:49;19.3;99.1
7455;HTU21D;3769;51.208;4.454;2023-07-20T08:15:49;19.4;98
7455;HTU21D;3769;51.208;4.454;2023-07-20T08:20:49;19.6;93.5
7455;HTU21D;3769;51.208;4.454;2023-07-20T08:25:49;19.5;92.4
7455;HTU21D;3769;51.208;4.454;2023-07-20T08:30:49;19.4;93.6
7455;HTU21D;3769;51.208;4.454;2023-07-20T08:35:49;19.3;88.7
7455;HTU21D;3769;51.208;4.454;2023-07-20T08:40:49;19.2;92.7
7455;HTU21D;3769;51.208;4.454;2023-07-20T08:45:49;19;92.1
7455;HTU21D;3769;51.208;4.454;2023-07-20T08:50:49;19.4;92.8
7455;HTU21D;3769;51.208;4.454;2023-07-20T08:55:50;19.7;90.6
7455;HTU21D;3769;51.208;4.454;2023-07-20T09:00:49;20;87.9
7455;HTU21D;3769;51.208;4.454;2023-07-20T09:05:49;20;87
7455;HTU21D;3769;51.208;4.454;2023-07-20T09:10:49;20.6;78.9
7455;HTU21D;3769;51.208;4.454;2023-07-20T09:15:53;20.5;82.8
7455;HTU21D;3769;51.208;4.454;2023-07-20T09:20:49;20.4;81.9
7455;HTU21D;3769;51.208;4.454;2023-07-20T09:25:49;20.3;78.6
7455;HTU21D;3769;51.208;4.454;2023-07-20T09:30:49;20.3;83.3
7455;HTU21D;3769;51.208;4.454;2023-07-20T09:35:49;20.6;80
7455;HTU21D;3769;51.208;4.454;2023-07-20T09:40:50;20.7;80.4
7455;HTU21D;3769;51.208;4.454;2023-07-20T09:45:49;20.9;73.5
7455;HTU21D;3769;51.208;4.454;2023-07-20T09:50:49;21;73.1
7455;HTU21D;3769;51.208;4.454;2023-07-20T09:55:49;21.2;71.7
7455;HTU21D;3769;51.208;4.454;2023-07-20T10:00:50;21.2;73
7455;HTU21D;3769;51.208;4.454;2023-07-20T10:05:52;20.9;73.6
7455;HTU21D;3769;51.208;4.454;2023-07-20T10:10:49;20.9;79.6
7455;HTU21D;3769;51.208;4.454;2023-07-20T10:15:50;20.9;79.7
7455;HTU21D;3769;51.208;4.454;2023-07-20T10:20:49;20.7;82.8
7455;HTU21D;3769;51.208;4.454;2023-07-20T10:25:49;20.9;80.8
7455;HTU21D;3769;51.208;4.454;2023-07-20T10:30:49;20.9;79.5
7455;HTU21D;3769;51.208;4.454;2023-07-20T10:35:51;21;74.9
7455;HTU21D;3769;51.208;4.454;2023-07-20T10:40:56;21.2;67.8
7455;HTU21D;3769;51.208;4.454;2023-07-20T10:45:50;21.2;65.7
7455;HTU21D;3769;51.208;4.454;2023-07-20T10:51:21;21.6;66.2
7455;HTU21D;3769;51.208;4.454;2023-07-20T10:55:49;21.7;62.8
7455;HTU21D;3769;51.208;4.454;2023-07-20T11:00:57;21.7;63.3
7455;HTU21D;3769;51.208;4.454;2023-07-20T11:05:49;21.6;64.1
7455;HTU21D;3769;51.208;4.454;2023-07-20T11:10:49;21.9;64.7
7455;HTU21D;3769;51.208;4.454;2023-07-20T11:16:02;22.2;61.9
7455;HTU21D;3769;51.208;4.454;2023-07-20T11:20:50;22.4;59.4
7455;HTU21D;3769;51.208;4.454;2023-07-20T11:25:49;22.4;59.7
7455;HTU21D;3769;51.208;4.454;2023-07-20T11:30:51;22.6;58.3
7455;HTU21D;3769;51.208;4.454;2023-07-20T11:35:49;22.7;58.2
7455;HTU21D;3769;51.208;4.454;2023-07-20T11:40:49;22.7;58.6
7455;HTU21D;3769;51.208;4.454;2023-07-20T11:45:49;22.6;62.1
7455;HTU21D;3769;51.208;4.454;2023-07-20T11:50:49;22.5;59.6
7455;HTU21D;3769;51.208;4.454;2023-07-20T11:55:49;22.7;59.2
7455;HTU21D;3769;51.208;4.454;2023-07-20T12:00:49;22.2;59
7455;HTU21D;3769;51.208;4.454;2023-07-20T12:05:49;21.9;61.5
7455;HTU21D;3769;51.208;4.454;2023-07-20T12:10:49;21.8;62.7
7455;HTU21D;3769;51.208;4.454;2023-07-20T12:15:49;22;63.7
7455;HTU21D;3769;51.208;4.454;2023-07-20T12:20:49;22.2;61.7
7455;HTU21D;3769;51.208;4.454;2023-07-20T12:25:49;22;61.9
7455;HTU21D;3769;51.208;4.454;2023-07-20T12:30:49;21.7;62.8
7455;HTU21D;3769;51.208;4.454;2023-07-20T12:35:49;21.8;60.9
7455;HTU21D;3769;51.208;4.454;2023-07-20T12:40:49;22.1;62.6
7455;HTU21D;3769;51.208;4.454;2023-07-20T12:45:49;22.1;63.3
7455;HTU21D;3769;51.208;4.454;2023-07-20T12:50:49;22.2;62.4
7455;HTU21D;3769;51.208;4.454;2023-07-20T12:55:49;22.2;61.1
7455;HTU21D;3769;51.208;4.454;2023-07-20T13:00:49;22;61.8
7455;HTU21D;3769;51.208;4.454;2023-07-20T13:05:49;21.8;62.9
7455;HTU21D;3769;51.208;4.454;2023-07-20T13:10:49;21.6;63.8
7455;HTU21D;3769;51.208;4.454;2023-07-20T13:15:49;21.6;65.5
7455;HTU21D;3769;51.208;4.454;2023-07-20T13:20:49;21.5;64.6
7455;HTU21D;3769;51.208;4.454;2023-07-20T13:25:49;21.5;62
7455;HTU21D;3769;51.208;4.454;2023-07-20T13:30:49;21.4;64.8
7455;HTU21D;3769;51.208;4.454;2023-07-20T13:35:49;21.4;66.8
7455;HTU21D;3769;51.208;4.454;2023-07-20T13:40:49;21.3;66.6
7455;HTU21D;3769;51.208;4.454;2023-07-20T13:45:49;21.3;66.8
7455;HTU21D;3769;51.208;4.454;2023-07-20T13:50:49;21.3;66.3
7455;HTU21D;3769;51.208;4.454;2023-07-20T13:55:49;21.4;66.4
7455;HTU21D;3769;51.208;4.454;2023-07-20T14:00:49;21.5;68
7455;HTU21D;3769;51.208;4.454;2023-07-20T14:05:49;21.6;66.4
7455;HTU21D;3769;51.208;4.454;2023-07-20T14:10:49;21.5;67.1
7455;HTU21D;3769;51.208;4.454;2023-07-20T14:15:49;21.7;65.3
7455;HTU21D;3769;51.208;4.454;2023-07-20T14:20:49;21.4;66.7
7455;HTU21D;3769;51.208;4.454;2023-07-20T14:25:49;21.3;67.8
7455;HTU21D;3769;51.208;4.454;2023-07-20T14:30:49;21.5;66.8
7455;HTU21D;3769;51.208;4.454;2023-07-20T14:35:49;21.3;68.7
7455;HTU21D;3769;51.208;4.454;2023-07-20T14:40:49;21.1;68.6
7455;HTU21D;3769;51.208;4.454;2023-07-20T14:45:49;21.2;68.2
7455;HTU21D;3769;51.208;4.454;2023-07-20T14:50:49;21.2;67.1
7455;HTU21D;3769;51.208;4.454;2023-07-20T14:55:49;21;66.5
7455;HTU21D;3769;51.208;4.454;2023-07-20T15:00:49;21.1;65.4
7455;HTU21D;3769;51.208;4.454;2023-07-20T15:05:49;21;66.1
7455;HTU21D;3769;51.208;4.454;2023-07-20T15:10:49;21;66.8
7455;HTU21D;3769;51.208;4.454;2023-07-20T15:15:49;21;68.2
7455;HTU21D;3769;51.208;4.454;2023-07-20T15:20:50;20.9;69.9
7455;HTU21D;3769;51.208;4.454;2023-07-20T15:25:49;20.8;70.2
7455;HTU21D;3769;51.208;4.454;2023-07-20T15:30:49;20.8;68.7
7455;HTU21D;3769;51.208;4.454;2023-07-20T15:35:49;20.8;70
7455;HTU21D;3769;51.208;4.454;2023-07-20T15:40:49;20.7;71
7455;HTU21D;3769;51.208;4.454;2023-07-20T15:45:49;20.4;72.2
7455;HTU21D;3769;51.208;4.454;2023-07-20T15:50:49;20.2;72.2
7455;HTU21D;3769;51.208;4.454;2023-07-20T15:55:52;20.2;71
7455;HTU21D;3769;51.208;4.454;2023-07-20T16:00:53;19.9;77.1
7455;HTU21D;3769;51.208;4.454;2023-07-20T16:05:49;19.9;79.8
7455;HTU21D;3769;51.208;4.454;2023-07-20T16:10:51;19.7;79.2
7455;HTU21D;3769;51.208;4.454;2023-07-20T16:15:49;19.8;78.4
7455;HTU21D;3769;51.208;4.454;2023-07-20T16:20:51;19.8;76.4
7455;HTU21D;3769;51.208;4.454;2023-07-20T16:25:49;19.7;76.6
7455;HTU21D;3769;51.208;4.454;2023-07-20T16:30:49;19.8;77.5
7455;HTU21D;3769;51.208;4.454;2023-07-20T16:35:49;19.9;76.2
7455;HTU21D;3769;51.208;4.454;2023-07-20T16:40:49;19.9;75.9
7455;HTU21D;3769;51.208;4.454;2023-07-20T16:45:49;19.9;76.3
7455;HTU21D;3769;51.208;4.454;2023-07-20T16:50:49;19.9;78.5
7455;HTU21D;3769;51.208;4.454;2023-07-20T16:55:49;19.9;78.7
7455;HTU21D;3769;51.208;4.454;2023-07-20T17:00:49;19.9;81.2
7455;HTU21D;3769;51.208;4.454;2023-07-20T17:05:49;19.9;83.6
7455;HTU21D;3769;51.208;4.454;2023-07-20T17:10:49;19.9;82.9
7455;HTU21D;3769;51.208;4.454;2023-07-20T17:15:49;20;80.6
7455;HTU21D;3769;51.208;4.454;2023-07-20T17:20:49;20.6;76.6
7455;HTU21D;3769;51.208;4.454;2023-07-20T17:25:49;21;76.1
7455;HTU21D;3769;51.208;4.454;2023-07-20T17:30:57;21.5;71.9
7455;HTU21D;3769;51.208;4.454;2023-07-20T17:35:49;21.3;72
7455;HTU21D;3769;51.208;4.454;2023-07-20T17:40:50;21;71.8
7455;HTU21D;3769;51.208;4.454;2023-07-20T17:45:49;20.7;75.4
7455;HTU21D;3769;51.208;4.454;2023-07-20T17:50:49;20.6;74.3
7455;HTU21D;3769;51.208;4.454;2023-07-20T17:55:49;20.3;75
7455;HTU21D;3769;51.208;4.454;2023-07-20T18:00:49;20.1;75.6
7455;HTU21D;3769;51.208;4.454;2023-07-20T18:05:49;19.9;77.7
7455;HTU21D;3769;51.208;4.454;2023-07-20T18:10:49;19.9;77.5
7455;HTU21D;3769;51.208;4.454;2023-07-20T18:15:54;19.9;79
7455;HTU21D;3769;51.208;4.454;2023-07-20T18:20:49;19.8;78
7455;HTU21D;3769;51.208;4.454;2023-07-20T18:25:49;19.8;78.8
7455;HTU21D;3769;51.208;4.454;2023-07-20T18:30:49;19.8;78.4
7455;HTU21D;3769;51.208;4.454;2023-07-20T18:35:52;19.7;79.7
7455;HTU21D;3769;51.208;4.454;2023-07-20T18:40:49;19.7;80.6
7455;HTU21D;3769;51.208;4.454;2023-07-20T18:45:52;19.7;84.6
7455;HTU21D;3769;51.208;4.454;2023-07-20T18:50:49;19.8;83.2
7455;HTU21D;3769;51.208;4.454;2023-07-20T18:55:49;19.6;83.6
7455;HTU21D;3769;51.208;4.454;2023-07-20T19:00:49;19.5;83.1
7455;HTU21D;3769;51.208;4.454;2023-07-20T19:05:49;19.5;82.4
7455;HTU21D;3769;51.208;4.454;2023-07-20T19:10:49;19.4;85.1
7455;HTU21D;3769;51.208;4.454;2023-07-20T19:15:49;19.3;87.8
7455;HTU21D;3769;51.208;4.454;2023-07-20T19:20:49;19.3;89.6
7455;HTU21D;3769;51.208;4.454;2023-07-20T19:25:49;19.2;89.3
7455;HTU21D;3769;51.208;4.454;2023-07-20T19:30:49;19.1;91
7455;HTU21D;3769;51.208;4.454;2023-07-20T19:35:49;19;92.4
7455;HTU21D;3769;51.208;4.454;2023-07-20T19:40:49;18.9;93.8
7455;HTU21D;3769;51.208;4.454;2023-07-20T19:45:49;18.9;95.2
7455;HTU21D;3769;51.208;4.454;2023-07-20T19:50:50;18.8;96.8
7455;HTU21D;3769;51.208;4.454;2023-07-20T19:55:49;18.7;99.1
7455;HTU21D;3769;51.208;4.454;2023-07-20T20:00:49;18.7;97.2
7455;HTU21D;3769;51.208;4.454;2023-07-20T20:05:49;18.6;99
7455;HTU21D;3769;51.208;4.454;2023-07-20T20:10:49;18.6;99
7455;HTU21D;3769;51.208;4.454;2023-07-20T20:15:49;18.5;99
7455;HTU21D;3769;51.208;4.454;2023-07-20T20:20:49;18.5;99
7455;HTU21D;3769;51.208;4.454;2023-07-20T20:25:50;18.3;99
7455;HTU21D;3769;51.208;4.454;2023-07-20T20:30:50;18.2;99
7455;HTU21D;3769;51.208;4.454;2023-07-20T20:35:49;18.2;99
7455;HTU21D;3769;51.208;4.454;2023-07-20T20:40:50;18.2;99
7455;HTU21D;3769;51.208;4.454;2023-07-20T20:45:50;18.1;99
7455;HTU21D;3769;51.208;4.454;2023-07-20T20:50:49;18.1;99
7455;HTU21D;3769;51.208;4.454;2023-07-20T20:55:49;17.9;98.9
7455;HTU21D;3769;51.208;4.454;2023-07-20T21:00:49;17.9;98.9
7455;HTU21D;3769;51.208;4.454;2023-07-20T21:05:49;17.8;98.9
7455;HTU21D;3769;51.208;4.454;2023-07-20T21:10:49;17.9;98.9
7455;HTU21D;3769;51.208;4.454;2023-07-20T21:15:51;17.7;98.9
7455;HTU21D;3769;51.208;4.454;2023-07-20T21:20:49;17.7;98.9
7455;HTU21D;3769;51.208;4.454;2023-07-20T21:25:49;17.6;98.9
7455;HTU21D;3769;51.208;4.454;2023-07-20T21:31:06;17.6;98.9
7455;HTU21D;3769;51.208;4.454;2023-07-20T21:35:49;17.6;98.9
7455;HTU21D;3769;51.208;4.454;2023-07-20T21:40:49;17.5;98.9
7455;HTU21D;3769;51.208;4.454;2023-07-20T21:45:49;17.6;98.9
7455;HTU21D;3769;51.208;4.454;2023-07-20T21:50:50;17.5;98.9
7455;HTU21D;3769;51.208;4.454;2023-07-20T21:55:49;17.5;98.9
7455;HTU21D;3769;51.208;4.454;2023-07-20T22:00:49;17.5;98.9
7455;HTU21D;3769;51.208;4.454;2023-07-20T22:05:50;17.4;98.9
7455;HTU21D;3769;51.208;4.454;2023-07-20T22:10:49;17.4;98.9
7455;HTU21D;3769;51.208;4.454;2023-07-20T22:15:49;17.4;98.9
7455;HTU21D;3769;51.208;4.454;2023-07-20T22:20:49;17.4;98.9
7455;HTU21D;3769;51.208;4.454;2023-07-20T22:25:49;17.3;98.8
7455;HTU21D;3769;51.208;4.454;2023-07-20T22:30:49;17.2;98.8
7455;HTU21D;3769;51.208;4.454;2023-07-20T22:35:49;17.2;98.8
7455;HTU21D;3769;51.208;4.454;2023-07-20T22:40:49;17.1;98.8
7455;HTU21D;3769;51.208;4.454;2023-07-20T22:45:50;17.2;98.8
7455;HTU21D;3769;51.208;4.454;2023-07-20T22:50:51;17.1;98.8
7455;HTU21D;3769;51.208;4.454;2023-07-20T22:55:50;17.1;98.8
7455;HTU21D;3769;51.208;4.454;2023-07-20T23:00:49;17.1;98.8
7455;HTU21D;3769;51.208;4.454;2023-07-20T23:05:49;17.1;98.8
7455;HTU21D;3769;51.208;4.454;2023-07-20T23:10:49;17.2;98.8
7455;HTU21D;3769;51.208;4.454;2023-07-20T23:15:50;17.1;98.8
7455;HTU21D;3769;51.208;4.454;2023-07-20T23:20:49;17;98.8
7455;HTU21D;3769;51.208;4.454;2023-07-20T23:25:51;17.1;98.8
7455;HTU21D;3769;51.208;4.454;2023-07-20T23:30:49;17;98.8
7455;HTU21D;3769;51.208;4.454;2023-07-20T23:35:49;17.1;98.8
7455;HTU21D;3769;51.208;4.454;2023-07-20T23:40:49;17.1;98.8
7455;HTU21D;3769;51.208;4.454;2023-07-20T23:45:49;17;98.8
7455;HTU21D;3769;51.208;4.454;2023-07-20T23:50:49;17;98.8
7455;HTU21D;3769;51.208;4.454;2023-07-20T23:55:49;17;98.8
